Latest Coastal Weather Observations for Wyndham Airport

IDW60701

Issued at 7:55 am WST Saturday 25 October 2014 (issued every 10 minutes, with the page automatically refreshed every 10 minutes)

About coastal observations | Map of coastal stations | Coastal observations for WA | Marine services | Other Formats
Station Details ID: 001006 Name: WYNDHAM AERO Lat: -15.51 Lon: 128.15 Height: 3.8 m
Data from the previous 72 hours. | See also: Recent months for locations in Western Australia
Date/Time
WST
Temp

°C
Wind Pressure Rain
since 9am
mm
Weather Cloud Vis
km
Sea
Height
m
Swell
Dir
 
Speed
knots
Gust
knots
hPa Trend Height
m
Period
s
Dir
25/07:30am 31.4 NNW 5 8 1014.9 - 0.0 - - - - - - -
25/07:00am 30.8 N 8 11 1014.7 - 0.0 - - - - - - -
25/06:30am 30.0 N 8 11 1014.8 - 0.0 - - - - - - -
25/06:00am 29.3 N 7 9 1014.5 - 0.0 - - - - - - -
25/05:30am 28.6 NE 7 10 1014.3 - 0.0 - - - - - - -
25/05:00am 27.0 NNE 4 7 1013.4 - 0.0 - - - - - - -
25/04:30am 27.8 W 8 9 1012.2 - 0.0 - - - - - - -
25/04:00am 26.3 NNW 3 5 1012.3 - 0.0 - - - - - - -
25/03:30am 26.1 W 4 5 1011.6 - 0.0 - - - - - - -
25/03:00am 27.1 W 5 6 1011.3 - 0.0 - - - - - - -
25/02:30am 26.8 WNW 5 6 1011.1 - 0.0 - - - - - - -
25/02:00am 28.2 W 7 8 1011.0 - 0.0 - - - - - - -
25/01:30am 27.7 WNW 5 6 1011.2 - 0.0 - - - - - - -
25/01:00am 28.8 W 7 8 1011.4 - 0.0 - - - - - - -
25/12:30am 28.9 WSW 7 9 1011.5 - 0.0 - - - - - - -
25/12:00am 29.3 WSW 8 10 1011.6 - 0.0 - - - - - - -
 
Date/Time
WST
Temp

°C
Wind Pressure Rain
since 9am
mm
Weather Cloud Vis
km
Sea
Height
m
Swell
Dir
 
Speed
knots
Gust
knots
hPa Trend Height
m
Period
s
Dir
24/11:30pm 29.5 WSW 11 13 1011.8 - 0.0 - - - - - - -
24/11:00pm 29.8 WSW 9 12 1011.9 - 0.0 - - - - - - -
24/10:30pm 29.4 W 6 7 1011.7 - 0.0 - - - - - - -
24/10:00pm 29.8 W 4 6 1011.6 - 0.0 - - - - - - -
24/09:30pm 30.1 W 4 5 1011.8 - 0.0 - - - - - - -
24/09:00pm 30.6 NW 7 9 1011.7 - 0.0 - - - - - - -
24/08:30pm 31.1 WNW 5 6 1011.2 - 0.0 - - - - - - -
24/08:00pm 31.0 NNE 2 5 1010.8 - 0.0 - - - - - - -
24/07:30pm 30.9 W 6 10 1010.9 - 0.0 - - - - - - -
24/07:00pm 31.4 N 11 16 1010.3 - 0.0 - - - - - - -
24/06:30pm 31.3 N 12 16 1010.0 - 0.0 - - - - - - -
24/06:00pm 32.1 NNE 9 15 1009.8 - 0.0 - - - - - - -
24/05:30pm 31.8 ENE 11 14 1009.8 - 0.0 - - - - - - -
24/05:09pm 32.6 ENE 20 25 1009.4 - 0.0 - - - - - - -
24/05:00pm 33.4 NNE 14 19 1009.0 - 0.0 - - - - - - -
24/04:30pm 34.5 N 15 19 1008.5 - 0.0 - - - - - - -
24/04:00pm 36.8 N 11 15 1008.3 - 0.0 - - - - - - -
24/03:30pm 36.3 NNE 14 19 1008.2 - 0.0 - - - - - - -
24/03:00pm 37.1 NNE 13 19 1008.4 - 0.0 - - - - - - -
24/02:30pm 35.7 NNE 17 24 1008.7 - 0.0 - - - - - - -
24/02:00pm 37.9 N 12 19 1008.9 - 0.0 - - - - - - -
24/01:30pm 37.5 NNW 9 15 1009.0 - 0.0 - - - - - - -
24/01:00pm 37.0 N 11 16 1009.3 - 0.0 - - - - - - -
24/12:30pm 37.4 NW 8 13 1009.7 - 0.0 - - - - - - -
24/12:00pm 36.9 NE 9 13 1010.2 - 0.0 - - - - - - -
24/11:30am 36.8 E 6 8 1010.7 - 0.0 - - - - - - -
24/11:00am 36.0 N 9 13 1011.3 - 0.0 - - - - - - -
24/10:30am 36.1 NNE 8 14 1011.9 - 0.0 - - - - - - -
24/10:00am 35.1 NNE 9 14 1012.3 - 0.0 - - - - - - -
24/09:30am 35.1 ENE 5 10 1012.7 - 0.0 - - - - - - -
24/09:00am 33.4 NNE 7 9 1013.1 - 0.0 - - - - - - -
24/08:30am 33.3 NNE 7 11 1013.2 - 0.0 - - - - - - -
24/08:00am 32.1 N 8 12 1013.4 - 0.0 - - - - - - -
24/07:30am 31.7 N 7 10 1013.4 - 0.0 - - - - - - -
24/07:00am 30.3 ENE 5 7 1013.5 - 0.0 - - - - - - -
24/06:30am 28.3 E 12 18 1013.3 - 0.0 - - - - - - -
24/06:13am 27.8 E 15 24 1012.8 - 0.0 - - - - - - -
24/06:00am 27.8 CALM 0 0 1011.7 - 0.0 - - - - - - -
24/05:30am 25.2 ESE 3 3 1011.5 - 0.0 - - - - - - -
24/05:00am 24.8 CALM 0 0 1011.3 - 0.0 - - - - - - -
24/04:30am 25.1 CALM 0 3 1011.1 - 0.0 - - - - - - -
24/04:00am 25.2 ESE 4 5 1010.9 - 0.0 - - - - - - -
24/03:30am 25.6 E 4 5 1010.8 - 0.0 - - - - - - -
24/03:00am 26.3 E 5 6 1010.7 - 0.0 - - - - - - -
24/02:30am 26.7 E 3 6 1010.6 - 0.0 - - - - - - -
24/02:00am 28.5 WNW 5 7 1010.7 - 0.0 - - - - - - -
24/01:30am 28.8 NW 5 6 1010.8 - 0.0 - - - - - - -
24/01:00am 29.3 WNW 6 8 1011.0 - 0.0 - - - - - - -
24/12:30am 29.4 WNW 7 9 1011.3 - 0.0 - - - - - - -
24/12:00am 29.3 WNW 6 9 1011.4 - 0.0 - - - - - - -
 
Date/Time
WST
Temp

°C
Wind Pressure Rain
since 9am
mm
Weather Cloud Vis
km
Sea
Height
m
Swell
Dir
 
Speed
knots
Gust
knots
hPa Trend Height
m
Period
s
Dir
23/11:30pm 29.7 W 8 9 1011.6 - 0.0 - - - - - - -
23/11:00pm 29.1 W 5 7 1011.8 - 0.0 - - - - - - -
23/10:30pm 29.7 W 8 8 1012.0 - 0.0 - - - - - - -
23/10:00pm 29.8 W 6 6 1012.3 - 0.0 - - - - - - -
23/09:30pm 29.9 NW 5 7 1012.4 - 0.0 - - - - - - -
23/09:00pm 30.6 NW 8 9 1012.2 - 0.0 - - - - - - -
23/08:30pm 30.6 NNW 4 7 1012.0 - 0.0 - - - - - - -
23/08:00pm 30.8 NW 4 5 1011.4 - 0.0 - - - - - - -
23/07:30pm 31.2 N 4 6 1010.9 - 0.0 - - - - - - -
23/07:00pm 31.1 N 15 19 1010.4 - 0.0 - - - - - - -
23/06:30pm 32.0 N 14 19 1010.0 - 0.0 - - - - - - -
23/06:00pm 31.9 N 14 19 1009.7 - 0.0 - - - - - - -
23/05:30pm 32.6 N 16 21 1009.5 - 0.0 - - - - - - -
23/05:00pm 34.0 N 14 20 1009.2 - 0.0 - - - - - - -
23/04:30pm 35.7 N 13 17 1008.8 - 0.0 - - - - - - -
23/04:00pm 36.6 N 13 18 1008.5 - 0.0 - - - - - - -
23/03:30pm 36.9 NNE 13 18 1008.4 - 0.0 - - - - - - -
23/03:00pm 37.5 N 15 22 1008.5 - 0.0 - - - - - - -
23/02:30pm 37.5 NNW 17 22 1008.2 - 0.0 - - - - - - -
23/02:00pm 38.5 NNW 15 25 1008.7 - 0.0 - - - - - - -
23/01:56pm 37.7 NNW 15 25 1008.7 - 0.0 - - - - - - -
23/01:30pm 37.3 NW 12 16 1008.9 - 0.0 - - - - - - -
23/01:00pm 38.4 N 11 16 1009.3 - 0.0 - - - - - - -
23/12:30pm 38.3 NNW 11 17 1009.7 - 0.0 - - - - - - -
23/12:00pm 36.2 N 8 13 1010.4 - 0.0 - - - - - - -
23/11:30am 36.2 NW 8 14 1011.0 - 0.0 - - - - - - -
23/11:00am 36.0 N 5 11 1011.5 - 0.0 - - - - - - -
23/10:30am 36.2 N 10 16 1011.9 - 0.0 - - - - - - -
23/10:00am 35.3 NE 4 7 1012.4 - 0.0 - - - - - - -
23/09:30am 33.9 NE 5 8 1012.9 - 0.0 - - - - - - -
23/09:00am 33.5 N 5 9 1013.4 - 0.0 - - - - - - -
23/08:30am 32.9 N 5 9 1013.7 - 0.0 - - - - - - -
23/08:00am 31.9 NE 7 10 1013.9 - 0.0 - - - - - - -
23/07:30am 31.3 NE 9 13 1013.7 - 0.0 - - - - - - -
23/07:00am 30.1 ENE 12 16 1013.7 - 0.0 - - - - - - -
23/06:30am 30.5 E 11 18 1013.3 - 0.0 - - - - - - -
23/06:00am 28.3 CALM 0 0 1012.0 - 0.0 - - - - - - -
23/05:30am 25.7 W 2 4 1011.9 - 0.0 - - - - - - -
23/05:00am 25.0 CALM 0 0 1011.4 - 0.0 - - - - - - -
23/04:30am 24.9 W 1 5 1011.0 - 0.0 - - - - - - -
23/04:00am 24.7 CALM 0 0 1010.9 - 0.0 - - - - - - -
23/03:30am 24.7 SSW 3 4 1010.8 - 0.0 - - - - - - -
23/03:00am 25.0 NW 3 4 1010.4 - 0.0 - - - - - - -
23/02:30am 24.8 E 2 6 1010.5 - 0.0 - - - - - - -
23/02:00am 25.4 ESE 5 7 1010.6 - 0.0 - - - - - - -
23/01:30am 25.4 E 5 6 1010.6 - 0.0 - - - - - - -
23/01:00am 26.1 E 5 6 1010.9 - 0.0 - - - - - - -
23/12:30am 26.2 E 1 7 1011.1 - 0.0 - - - - - - -
23/12:00am 25.6 CALM 0 0 1011.4 - 0.0 - - - - - - -
 
Date/Time
WST
Temp

°C
Wind Pressure Rain
since 9am
mm
Weather Cloud Vis
km
Sea
Height
m
Swell
Dir
 
Speed
knots
Gust
knots
hPa Trend Height
m
Period
s
Dir
22/11:30pm 26.5 WNW 2 3 1011.5 - 0.0 - - - - - - -
22/11:00pm 26.9 NE 2 4 1011.7 - 0.0 - - - - - - -
22/10:30pm 27.5 SE 4 6 1012.0 - 0.0 - - - - - - -
22/10:00pm 28.1 E 6 8 1012.0 - 0.0 - - - - - - -
22/09:30pm 28.7 ENE 5 6 1011.9 - 0.0 - - - - - - -
22/09:00pm 30.8 WNW 5 6 1011.9 - 0.0 - - - - - - -
22/08:30pm 31.4 N 4 8 1011.8 - 0.0 - - - - - - -
22/08:00pm 30.8 SSW 6 8 1011.4 - 0.0 - - - - - - -
22/07:30pm 31.8 N 10 13 1011.1 - 0.0 - - - - - - -
22/07:00pm 31.9 N 13 19 1010.7 - 0.0 - - - - - - -
22/06:30pm 32.1 N 13 18 1010.5 - 0.0 - - - - - - -
22/06:00pm 32.4 N 14 19 1010.1 - 0.0 - - - - - - -
22/05:30pm 32.8 N 15 22 1009.8 - 0.0 - - - - - - -
22/05:00pm 33.5 N 15 19 1009.5 - 0.0 - - - - - - -
22/04:30pm 34.5 N 15 21 1009.3 - 0.0 - - - - - - -
22/04:00pm 35.6 N 16 21 1009.1 - 0.0 - - - - - - -
22/03:30pm 36.6 N 15 21 1009.0 - 0.0 - - - - - - -
22/03:00pm 36.8 NNW 12 21 1009.0 - 0.0 - - - - - - -
22/02:30pm 37.2 NNW 15 22 1008.9 - 0.0 - - - - - - -
22/02:00pm 38.1 N 13 18 1009.1 - 0.0 - - - - - - -
22/01:30pm 38.6 WNW 6 13 1009.3 - 0.0 - - - - - - -
22/01:00pm 38.2 NNW 12 16 1009.9 - 0.0 - - - - - - -
22/12:30pm 37.1 NW 12 16 1010.2 - 0.0 - - - - - - -
22/12:00pm 37.1 N 11 17 1010.9 - 0.0 - - - - - - -
22/11:30am 36.9 NNE 12 17 1011.8 - 0.0 - - - - - - -
22/11:00am 35.9 NNE 9 13 1012.4 - 0.0 - - - - - - -
22/10:30am 36.3 NNE 8 13 1012.8 - 0.0 - - - - - - -
22/10:00am 35.3 NW 8 15 1013.2 - 0.0 - - - - - - -
22/09:30am 34.7 N 9 14 1013.6 - 0.0 - - - - - - -
22/09:00am 33.7 N 8 13 1013.8 - 0.0 - - - - - - -
22/08:30am 33.8 NW 6 12 1014.1 - 0.0 - - - - - - -
22/08:00am 32.8 N 6 9 1013.9 - 0.0 - - - - - - -

Other Formats:

Comma delimited format used in spreadsheet applications
http://www.bom.gov.au/fwo/IDW60701/IDW60701.95214.axf

JavaScript Object Notation format (JSON) in row-major order
http://www.bom.gov.au/fwo/IDW60701/IDW60701.95214.json